Time;durP1;ratioP1;P1;durP2;ratioP2;P2;SDS_P1;SDS_P2;PMS_P1;PMS_P2;Temp;Humidity;BMP_temperature;BMP_pressure;BME280_temperature;BME280_humidity;BME280_pressure;Samples;Min_cycle;Max_cycle;Signal;HPM_P1;HPM_P2
2022/04/21 00:01:03;;;;;;;4.97;3.28;;;12.10;50.40;;;;;;5103289;28;20067;-73
2022/04/21 00:03:28;;;;;;;3.78;3.17;;;12.10;50.50;;;;;;5102521;28;20111;-73
2022/04/21 00:05:54;;;;;;;3.33;2.67;;;12.00;50.60;;;;;;5083119;28;20016;-73
2022/04/21 00:08:20;;;;;;;4.60;3.35;;;12.10;50.70;;;;;;5100120;28;20425;-73
2022/04/21 00:10:45;;;;;;;4.15;3.42;;;12.10;50.70;;;;;;5099108;28;20510;-74
2022/04/21 00:13:12;;;;;;;4.88;3.40;;;12.00;51.30;;;;;;5111827;27;20024;-74
2022/04/21 00:15:37;;;;;;;4.03;3.45;;;11.90;51.70;;;;;;5102662;28;20536;-73
2022/04/21 00:18:03;;;;;;;3.33;2.90;;;11.90;51.70;;;;;;5110921;28;20015;-73
2022/04/21 00:20:29;;;;;;;4.63;3.20;;;12.00;51.70;;;;;;5102263;28;20033;-72
2022/04/21 00:25:38;;;;;;;3.42;2.78;;;12.00;51.70;;;;;;5101469;28;20110;-73
2022/04/21 00:28:06;;;;;;;5.35;3.47;;;12.00;51.60;;;;;;5105805;28;20067;-73
2022/04/21 00:30:32;;;;;;;3.95;3.28;;;12.00;52.00;;;;;;5083111;28;20478;-72
2022/04/21 00:32:57;;;;;;;5.75;3.88;;;12.00;52.30;;;;;;5109500;27;20019;-72
2022/04/21 00:35:23;;;;;;;3.78;2.85;;;11.90;53.70;;;;;;5096933;28;20024;-72
2022/04/21 00:37:51;;;;;;;3.70;3.10;;;11.90;52.90;;;;;;5112254;27;20533;-73
2022/04/21 00:40:18;;;;;;;3.83;2.88;;;11.80;52.90;;;;;;5106756;28;20098;-72
2022/04/21 00:42:44;;;;;;;4.20;3.67;;;11.90;52.90;;;;;;5109173;28;20031;-71
2022/04/21 00:45:10;;;;;;;5.40;4.05;;;11.90;53.70;;;;;;5092574;28;20175;-72
2022/04/21 00:47:40;;;;;;;4.20;3.47;;;11.70;54.00;;;;;;5103597;28;20502;-72
2022/04/21 00:50:07;;;;;;;5.82;3.70;;;11.70;53.90;;;;;;5102958;28;20024;-71
2022/04/21 00:52:33;;;;;;;5.15;3.75;;;11.80;53.90;;;;;;5104710;28;20023;-71
2022/04/21 00:54:59;;;;;;;5.20;3.90;;;11.80;54.20;;;;;;5103513;28;20020;-71
2022/04/21 00:57:25;;;;;;;6.35;4.53;;;11.70;54.90;;;;;;5104478;28;20502;-72
2022/04/21 00:59:52;;;;;;;4.70;3.85;;;11.60;55.10;;;;;;5106029;27;20020;-72
2022/04/21 01:05:03;;;;;;;4.47;3.53;;;11.50;55.90;;;;;;5108277;28;20038;-71
2022/04/21 01:07:28;;;;;;;5.57;4.00;;;11.50;56.20;;;;;;5109855;28;20031;-71
2022/04/21 01:09:55;;;;;;;5.40;3.88;;;11.40;56.30;;;;;;5108157;28;20028;-71
2022/04/21 01:12:23;;;;;;;6.72;5.20;;;11.40;56.40;;;;;;5099893;28;20464;-72
2022/04/21 01:14:49;;;;;;;8.27;4.90;;;11.30;58.20;;;;;;5084547;28;20024;-70
2022/04/21 01:17:14;;;;;;;5.00;3.88;;;11.20;58.40;;;;;;5113616;27;20392;-69
2022/04/21 01:19:40;;;;;;;6.18;4.60;;;11.20;57.80;;;;;;5118509;27;20028;-71
2022/04/21 01:22:05;;;;;;;7.45;5.03;;;11.30;57.70;;;;;;5102609;28;20051;-72
2022/04/21 01:24:31;;;;;;;5.40;4.10;;;11.20;58.40;;;;;;5109246;27;20650;-71
2022/04/21 01:26:57;;;;;;;6.53;4.28;;;11.20;58.00;;;;;;5110205;27;20048;-72
2022/04/21 01:29:24;;;;;;;5.20;4.07;;;11.20;57.90;;;;;;5106388;28;20020;-72
2022/04/21 01:31:50;;;;;;;4.50;3.35;;;11.10;58.10;;;;;;5097925;27;20051;-71
2022/04/21 01:34:16;;;;;;;4.38;3.38;;;11.20;57.70;;;;;;5102556;27;20023;-73
2022/04/21 01:42:14;;;;;;;4.80;3.28;;;11.30;57.20;;;;;;5102898;28;20046;-68
2022/04/21 01:44:40;;;;;;;4.45;3.40;;;11.30;57.30;;;;;;5080336;28;20506;-70
2022/04/21 01:47:06;;;;;;;4.95;3.63;;;11.30;57.00;;;;;;5083424;28;20027;-70
2022/04/21 01:49:31;;;;;;;3.83;2.78;;;11.30;57.10;;;;;;5108052;28;20092;-72
2022/04/21 01:51:57;;;;;;;7.90;4.72;;;11.40;56.90;;;;;;5088117;28;20075;-71
2022/04/21 01:54:22;;;;;;;6.22;3.80;;;11.30;57.60;;;;;;5105977;28;20019;-71
2022/04/21 01:56:48;;;;;;;6.30;3.80;;;11.30;57.40;;;;;;5098171;28;20032;-70
2022/04/21 01:59:13;;;;;;;4.00;3.20;;;11.30;57.10;;;;;;5085850;28;20035;-71
2022/04/21 02:01:39;;;;;;;6.30;4.30;;;11.40;56.90;;;;;;5102194;28;20043;-70
2022/04/21 02:04:05;;;;;;;18.33;10.70;;;11.40;56.90;;;;;;5107288;27;20105;-69
2022/04/21 02:06:30;;;;;;;8.38;5.53;;;11.40;57.40;;;;;;5087625;28;20521;-68
2022/04/21 02:08:57;;;;;;;5.68;4.22;;;11.30;57.30;;;;;;5105308;28;20117;-69
2022/04/21 02:11:23;;;;;;;5.10;3.65;;;11.30;57.10;;;;;;5100639;28;20065;-69
2022/04/21 02:13:48;;;;;;;5.88;3.50;;;11.30;57.00;;;;;;5088743;28;20032;-70
2022/04/21 02:16:14;;;;;;;5.18;3.53;;;11.30;57.00;;;;;;5092644;28;20022;-69
2022/04/21 02:18:39;;;;;;;5.32;2.90;;;11.30;56.90;;;;;;5105650;28;20031;-71
2022/04/21 02:21:05;;;;;;;5.47;3.53;;;11.30;56.80;;;;;;5112993;27;20031;-70
2022/04/21 02:23:30;;;;;;;3.63;3.00;;;11.30;57.00;;;;;;5108844;28;20019;-71
2022/04/21 02:25:56;;;;;;;4.28;2.97;;;11.30;57.00;;;;;;5084281;28;20040;-71
2022/04/21 02:28:22;;;;;;;5.13;3.20;;;11.30;56.80;;;;;;5096716;28;20456;-69
2022/04/21 02:30:48;;;;;;;4.03;2.85;;;11.30;56.70;;;;;;5099420;27;20035;-69
2022/04/21 02:33:13;;;;;;;4.22;3.10;;;11.30;56.70;;;;;;5101660;28;20028;-69
2022/04/21 02:35:39;;;;;;;3.90;2.85;;;11.30;56.60;;;;;;5107817;28;20036;-72
2022/04/21 02:38:04;;;;;;;4.40;3.00;;;11.30;56.60;;;;;;5105812;28;20020;-72
2022/04/21 02:40:30;;;;;;;4.00;2.58;;;11.30;56.60;;;;;;5104738;28;20367;-69
2022/04/21 02:42:56;;;;;;;3.72;2.80;;;11.30;56.50;;;;;;5082625;28;20051;-70
2022/04/21 02:45:21;;;;;;;3.88;2.88;;;11.30;56.50;;;;;;5089952;28;20052;-70
2022/04/21 02:47:48;;;;;;;4.72;3.20;;;11.20;56.50;;;;;;5085181;28;20027;-70
2022/04/21 02:50:17;;;;;;;4.07;3.08;;;11.20;56.50;;;;;;5101502;28;20122;-70
2022/04/21 02:52:43;;;;;;;4.10;2.90;;;11.20;56.50;;;;;;5104201;28;20106;-69
2022/04/21 02:57:55;;;;;;;5.72;3.08;;;11.20;56.40;;;;;;5113200;28;20030;-70
2022/04/21 03:00:21;;;;;;;5.22;3.20;;;11.20;56.50;;;;;;5081440;28;20028;-69
2022/04/21 03:02:46;;;;;;;4.43;3.15;;;11.20;56.60;;;;;;5106904;28;20024;-70
2022/04/21 03:05:12;;;;;;;3.63;3.00;;;11.10;56.70;;;;;;5102690;28;20034;-70
2022/04/21 03:07:38;;;;;;;3.45;2.90;;;11.00;56.70;;;;;;5100285;28;20598;-69
2022/04/21 03:10:05;;;;;;;3.08;2.70;;;11.00;56.70;;;;;;5090226;28;20032;-68
2022/04/21 03:12:30;;;;;;;3.53;2.85;;;11.00;56.90;;;;;;5109825;28;20073;-69
2022/04/21 03:14:57;;;;;;;3.75;3.00;;;10.90;57.00;;;;;;5108868;28;20012;-70
2022/04/21 03:17:23;;;;;;;5.43;3.60;;;10.80;57.30;;;;;;5108304;28;20051;-71
2022/04/21 03:19:49;;;;;;;3.83;3.20;;;10.70;57.50;;;;;;5081953;28;20595;-70
2022/04/21 03:25:00;;;;;;;4.43;3.00;;;10.70;57.80;;;;;;5109324;27;20111;-70
2022/04/21 03:27:29;;;;;;;3.97;3.13;;;10.70;57.80;;;;;;5111762;28;20085;-70
2022/04/21 03:29:55;;;;;;;4.40;3.38;;;10.70;57.80;;;;;;5092194;28;20024;-70
2022/04/21 03:32:21;;;;;;;3.83;3.08;;;10.60;57.80;;;;;;5111949;27;20076;-69
2022/04/21 03:34:47;;;;;;;3.25;2.60;;;10.60;57.90;;;;;;5105704;27;20380;-71
2022/04/21 03:37:14;;;;;;;4.13;3.10;;;10.60;57.80;;;;;;5105677;28;20474;-70
2022/04/21 03:39:41;;;;;;;4.93;3.28;;;10.60;57.90;;;;;;5100123;28;20020;-68
2022/04/21 03:42:07;;;;;;;4.25;3.30;;;10.50;58.00;;;;;;5111036;28;20447;-69
2022/04/21 03:44:39;;;;;;;3.95;2.90;;;10.50;58.20;;;;;;5099801;28;20051;-70
2022/04/21 03:47:06;;;;;;;5.22;3.15;;;10.50;58.40;;;;;;5108471;28;20089;-70
2022/04/21 03:49:31;;;;;;;4.40;3.78;;;10.40;58.60;;;;;;5108455;27;20492;-69
2022/04/21 03:51:57;;;;;;;5.18;4.07;;;10.30;58.90;;;;;;5118895;27;20035;-71
2022/04/21 03:54:24;;;;;;;5.28;3.58;;;10.30;59.30;;;;;;5103708;28;20520;-71
2022/04/21 03:56:50;;;;;;;4.47;3.50;;;10.20;59.40;;;;;;5105212;28;20026;-72
2022/04/21 03:59:17;;;;;;;4.68;3.72;;;10.20;59.50;;;;;;5108275;28;20399;-72
2022/04/21 04:01:43;;;;;;;6.18;3.92;;;10.20;59.60;;;;;;5091505;28;20114;-71
2022/04/21 04:04:08;;;;;;;5.35;3.65;;;10.20;60.20;;;;;;5104778;28;20035;-71
2022/04/21 04:12:03;;;;;;;4.55;3.35;;;10.00;61.50;;;;;;5110965;28;20414;-72
2022/04/21 04:14:29;;;;;;;5.30;3.67;;;10.00;61.30;;;;;;5088407;28;20018;-70
2022/04/21 04:16:54;;;;;;;4.70;3.60;;;10.00;61.20;;;;;;5099735;28;20020;-71
2022/04/21 04:19:20;;;;;;;6.18;4.45;;;10.00;61.20;;;;;;5092622;27;20619;-70
2022/04/21 04:21:45;;;;;;;7.00;4.32;;;10.00;61.60;;;;;;5105160;27;20548;-70
2022/04/21 04:24:11;;;;;;;4.65;4.10;;;9.90;62.10;;;;;;5108642;27;20482;-70
2022/04/21 04:26:36;;;;;;;5.38;4.10;;;9.70;63.00;;;;;;5109676;28;20032;-71
2022/04/21 04:29:03;;;;;;;5.07;4.05;;;9.70;63.00;;;;;;5104959;27;20024;-71
2022/04/21 04:31:29;;;;;;;8.73;4.63;;;9.70;63.00;;;;;;5109387;27;20047;-71
2022/04/21 04:33:54;;;;;;;6.18;4.22;;;9.70;63.90;;;;;;5110538;27;20024;-70
2022/04/21 04:36:21;;;;;;;6.47;4.65;;;9.60;63.60;;;;;;5111184;27;20015;-70
2022/04/21 04:38:48;;;;;;;5.60;4.55;;;9.60;64.90;;;;;;5105971;27;20663;-68
2022/04/21 04:43:59;;;;;;;6.50;4.30;;;9.50;64.50;;;;;;5109645;27;20517;-72
2022/04/21 04:46:40;;;;;;;8.25;4.78;;;9.50;64.60;;;;;;5111308;28;20028;-71
2022/04/21 04:49:07;;;;;;;6.28;4.90;;;9.50;64.40;;;;;;5085550;28;20023;-70
2022/04/21 04:51:39;;;;;;;5.28;3.90;;;9.50;64.40;;;;;;5100840;28;20661;-72
2022/04/21 04:54:07;;;;;;;4.60;3.53;;;9.50;64.80;;;;;;5124397;27;20016;-71
2022/04/21 04:56:37;;;;;;;5.63;4.32;;;9.50;64.60;;;;;;5114521;27;20055;-71
2022/04/21 04:59:03;;;;;;;5.00;3.20;;;9.50;64.60;;;;;;5110390;27;20024;-72
2022/04/21 05:01:35;;;;;;;5.93;4.05;;;9.60;64.20;;;;;;5096283;27;20028;-72
2022/04/21 05:04:05;;;;;;;6.90;4.97;;;9.60;64.40;;;;;;5105252;27;20027;-72
2022/04/21 05:06:55;;;;;;;6.22;3.80;;;9.60;64.70;;;;;;5110603;27;20289;-72
2022/04/21 05:09:22;;;;;;;6.80;3.67;;;9.60;64.40;;;;;;5108270;27;20035;-72
2022/04/21 05:11:53;;;;;;;6.00;3.90;;;9.70;64.10;;;;;;5110531;28;20448;-72
2022/04/21 05:14:19;;;;;;;5.10;3.97;;;9.70;64.30;;;;;;5115841;27;20069;-71
2022/04/21 05:16:46;;;;;;;7.03;4.53;;;9.70;64.30;;;;;;5107537;27;20024;-72
2022/04/21 05:19:14;;;;;;;5.07;3.95;;;9.70;64.40;;;;;;5100540;27;20044;-72
2022/04/21 05:21:40;;;;;;;3.97;3.03;;;9.80;64.00;;;;;;5100292;27;20023;-72
2022/04/21 05:24:07;;;;;;;4.68;3.13;;;9.90;63.50;;;;;;5108736;27;20028;-73
2022/04/21 05:26:35;;;;;;;4.82;3.53;;;10.00;63.20;;;;;;5109946;27;20042;-72
2022/04/21 05:31:47;;;;;;;4.85;2.78;;;10.50;62.50;;;;;;5107831;28;20053;-72
2022/04/21 05:34:13;;;;;;;3.92;3.53;;;11.60;60.60;;;;;;5088567;28;20023;-72
2022/04/21 05:36:39;;;;;;;5.10;3.60;;;12.40;58.70;;;;;;5089102;28;20035;-72
2022/04/21 05:39:06;;;;;;;4.28;3.30;;;13.20;56.80;;;;;;5100879;28;21370;-72
2022/04/21 05:41:31;;;;;;;3.88;3.05;;;14.10;54.80;;;;;;5103783;27;20016;-72
2022/04/21 05:43:58;;;;;;;4.35;3.03;;;14.90;53.00;;;;;;5082641;28;20028;-70
2022/04/21 05:46:24;;;;;;;3.75;2.88;;;15.50;51.30;;;;;;5100430;28;20020;-71
2022/04/21 05:48:50;;;;;;;3.25;2.83;;;16.30;50.00;;;;;;5111617;27;20038;-72
2022/04/21 05:51:16;;;;;;;4.95;2.78;;;16.50;48.60;;;;;;5111491;27;20042;-73
2022/04/21 05:53:49;;;;;;;3.92;2.90;;;16.50;48.60;;;;;;5092713;27;20089;-71
2022/04/21 05:56:15;;;;;;;4.22;3.10;;;16.30;48.30;;;;;;5105496;28;20024;-73
2022/04/21 05:58:41;;;;;;;3.67;2.60;;;16.50;48.30;;;;;;5108485;28;20036;-73
2022/04/21 06:01:08;;;;;;;3.22;2.75;;;17.20;47.40;;;;;;5081454;28;20070;-71
2022/04/21 06:03:34;;;;;;;2.83;2.45;;;17.90;46.00;;;;;;5100524;27;20051;-73
2022/04/21 06:06:00;;;;;;;3.35;2.60;;;18.40;45.00;;;;;;5093359;28;20046;-74
2022/04/21 06:08:26;;;;;;;2.70;2.45;;;18.80;44.10;;;;;;5112006;27;20638;-73
2022/04/21 06:10:51;;;;;;;3.92;2.30;;;19.30;43.30;;;;;;5099154;28;20431;-74
2022/04/21 06:13:18;;;;;;;4.82;2.80;;;19.80;42.50;;;;;;5116371;27;20027;-73
2022/04/21 06:15:43;;;;;;;2.90;2.25;;;20.00;41.50;;;;;;5110566;27;20016;-72
2022/04/21 06:18:09;;;;;;;6.13;3.65;;;20.20;40.50;;;;;;5110854;28;20043;-73
2022/04/21 06:20:35;;;;;;;3.47;2.72;;;19.90;39.50;;;;;;5109869;28;20024;-73
2022/04/21 06:23:01;;;;;;;4.38;3.15;;;19.70;40.40;;;;;;5113463;28;20031;-73
2022/04/21 06:25:27;;;;;;;4.47;2.92;;;19.80;40.60;;;;;;5115510;27;20362;-72
2022/04/21 06:27:52;;;;;;;4.43;3.10;;;20.10;40.30;;;;;;5128526;27;20075;-73
2022/04/21 06:30:23;;;;;;;3.83;3.20;;;20.20;39.60;;;;;;5115818;27;20091;-73
2022/04/21 06:32:49;;;;;;;3.25;2.42;;;19.90;39.90;;;;;;5110194;28;20477;-71
2022/04/21 06:35:15;;;;;;;4.82;2.70;;;20.20;39.90;;;;;;5092031;28;20037;-71
2022/04/21 06:37:42;;;;;;;3.53;2.70;;;20.40;39.30;;;;;;5106549;28;20148;-72
2022/04/21 06:40:08;;;;;;;3.50;2.45;;;20.80;39.20;;;;;;5118408;27;20389;-72
2022/04/21 06:42:35;;;;;;;3.67;2.60;;;21.20;38.80;;;;;;5118431;28;20126;-71
2022/04/21 06:48:04;;;;;;;3.72;2.53;;;21.90;37.60;;;;;;5111256;28;20394;-73
2022/04/21 06:50:32;;;;;;;4.18;2.70;;;22.40;37.10;;;;;;5109840;27;20043;-73
2022/04/21 06:52:57;;;;;;;3.78;2.90;;;22.60;36.20;;;;;;5122969;27;20030;-71
2022/04/21 06:55:23;;;;;;;5.95;3.47;;;22.10;36.40;;;;;;5107479;28;20024;-73
2022/04/21 06:57:49;;;;;;;2.85;2.50;;;21.50;36.60;;;;;;5118482;27;20053;-72
2022/04/21 07:00:15;;;;;;;3.28;2.75;;;21.90;37.20;;;;;;5123225;27;20004;-74
2022/04/21 07:02:42;;;;;;;3.50;2.47;;;22.40;36.50;;;;;;5091417;28;20035;-73
2022/04/21 07:05:10;;;;;;;4.80;2.50;;;23.00;36.10;;;;;;5113977;27;20027;-73
2022/04/21 07:07:36;;;;;;;3.22;2.47;;;23.30;34.70;;;;;;5124764;27;20421;-73
2022/04/21 07:10:02;;;;;;;3.90;2.20;;;22.50;34.50;;;;;;5117229;27;20032;-71
2022/04/21 07:12:32;;;;;;;3.03;2.40;;;22.80;34.90;;;;;;5101976;27;20516;-72
2022/04/21 07:15:03;;;;;;;4.07;2.45;;;22.90;33.60;;;;;;5097183;28;20022;-72
2022/04/21 07:17:29;;;;;;;2.75;2.10;;;22.10;33.40;;;;;;5118837;27;20110;-72
2022/04/21 07:19:54;;;;;;;3.67;2.40;;;22.30;34.00;;;;;;5103728;27;20054;-71
2022/04/21 07:22:25;;;;;;;2.65;2.17;;;22.30;33.70;;;;;;5120570;27;20380;-72
2022/04/21 07:24:53;;;;;;;3.20;1.75;;;23.00;33.30;;;;;;5108366;27;20400;-73
2022/04/21 07:27:19;;;;;;;2.20;1.95;;;23.60;32.80;;;;;;5092643;28;20024;-72
2022/04/21 07:29:44;;;;;;;3.05;2.20;;;23.90;31.80;;;;;;5103898;27;20042;-73
2022/04/21 07:32:10;;;;;;;2.53;1.90;;;24.00;30.70;;;;;;5107060;27;20027;-73
2022/04/21 07:34:37;;;;;;;2.90;2.10;;;23.70;31.30;;;;;;5113537;28;20019;-72
2022/04/21 07:37:03;;;;;;;2.35;2.00;;;23.50;31.20;;;;;;5092566;28;20051;-72
2022/04/21 07:39:28;;;;;;;2.45;2.10;;;23.80;30.70;;;;;;5109081;28;20019;-73
2022/04/21 07:41:54;;;;;;;2.75;2.00;;;23.30;30.80;;;;;;5107271;27;20031;-70
2022/04/21 07:44:20;;;;;;;8.57;7.78;;;23.30;30.60;;;;;;5105096;27;20035;-72
2022/04/21 07:46:45;;;;;;;2.95;2.35;;;23.10;30.10;;;;;;5106129;27;20478;-70
2022/04/21 07:53:13;;;;;;;2.75;2.30;;;23.80;30.30;;;;;;5116661;27;20039;-73
2022/04/21 07:54:40;;;;;;;4.43;2.17;;;23.90;29.40;;;;;;5125487;27;20019;-72
2022/04/21 07:57:06;;;;;;;2.50;1.60;;;22.90;29.40;;;;;;5116905;27;20496;-71
2022/04/21 07:59:31;;;;;;;1.60;1.50;;;22.90;30.00;;;;;;5112027;27;20051;-71
2022/04/21 08:01:57;;;;;;;2.33;1.70;;;23.40;30.00;;;;;;5116043;27;20027;-73
2022/04/21 08:04:22;;;;;;;1.90;1.70;;;22.90;29.70;;;;;;5111744;27;20031;-72
2022/04/21 08:06:49;;;;;;;3.67;1.42;;;22.80;30.00;;;;;;5111013;27;20054;-72
2022/04/21 08:09:14;;;;;;;3.85;2.20;;;23.10;30.00;;;;;;5125511;27;20031;-72
2022/04/21 08:11:40;;;;;;;2.50;1.90;;;22.60;30.00;;;;;;5114195;27;20011;-71
2022/04/21 08:14:05;;;;;;;2.97;1.95;;;22.10;30.90;;;;;;5120565;27;20088;-72
2022/04/21 08:16:31;;;;;;;3.40;1.67;;;21.90;31.60;;;;;;5075883;28;20008;-71
2022/04/21 08:18:58;;;;;;;2.47;1.40;;;21.50;31.50;;;;;;5127107;27;20504;-72
2022/04/21 08:21:25;;;;;;;2.20;1.83;;;21.80;31.80;;;;;;5107176;28;20545;-72
2022/04/21 08:23:51;;;;;;;2.80;2.15;;;21.50;31.30;;;;;;5109339;27;20059;-71
2022/04/21 08:34:30;;;;;;;3.03;2.15;;;18.80;35.70;;;;;;5113332;27;20118;-73
2022/04/21 08:36:55;;;;;;;3.95;1.70;;;18.60;36.20;;;;;;5128722;27;20055;-73
2022/04/21 08:39:21;;;;;;;1.95;1.75;;;18.30;36.50;;;;;;5104962;27;20052;-73
2022/04/21 08:41:48;;;;;;;3.53;1.80;;;17.90;36.30;;;;;;5120178;27;20088;-72
2022/04/21 08:44:20;;;;;;;2.38;1.90;;;17.70;36.60;;;;;;5098073;27;20015;-71
2022/04/21 08:46:47;;;;;;;;;;;17.40;37.20;;;;;;5106774;28;20131;-73
2022/04/21 08:49:14;;;;;;;3.38;2.53;;;17.30;38.00;;;;;;5110399;27;20002;-72
2022/04/21 08:51:40;;;;;;;2.67;2.05;;;17.00;39.00;;;;;;5104679;28;20027;-73
2022/04/21 08:54:06;;;;;;;3.67;2.70;;;16.90;39.70;;;;;;5103817;27;20069;-70
2022/04/21 08:56:32;;;;;;;2.92;2.22;;;16.90;39.60;;;;;;5113175;27;20023;-73
2022/04/21 08:58:58;;;;;;;2.90;2.25;;;16.70;39.80;;;;;;5113761;27;20065;-73
2022/04/21 09:01:25;;;;;;;2.80;2.20;;;16.60;39.90;;;;;;5101740;28;20477;-72
2022/04/21 09:03:50;;;;;;;2.63;2.08;;;16.70;40.00;;;;;;5091445;28;20042;-73
2022/04/21 09:06:16;;;;;;;3.28;1.95;;;16.70;40.00;;;;;;5110783;28;20015;-72
2022/04/21 09:08:42;;;;;;;2.22;1.90;;;16.80;40.00;;;;;;5092664;28;20016;-72
2022/04/21 09:11:11;;;;;;;4.03;2.70;;;16.90;39.70;;;;;;5110832;28;20499;-72
2022/04/21 09:13:42;;;;;;;4.97;2.53;;;16.80;39.30;;;;;;5090020;28;20024;-71
2022/04/21 09:16:10;;;;;;;3.42;2.60;;;16.60;39.20;;;;;;5107140;27;20020;-72
2022/04/21 09:18:40;;;;;;;2.60;1.98;;;16.40;39.70;;;;;;5111223;27;20024;-72
2022/04/21 09:21:08;;;;;;;3.03;2.03;;;16.50;40.00;;;;;;5117347;27;20073;-71
2022/04/21 09:23:34;;;;;;;2.38;1.90;;;16.60;39.80;;;;;;5107008;27;20028;-72
2022/04/21 09:26:06;;;;;;;3.85;2.25;;;16.70;39.70;;;;;;5114763;27;20088;-71
2022/04/21 09:28:32;;;;;;;2.38;1.80;;;16.70;39.30;;;;;;5097799;28;20186;-70
2022/04/21 09:31:00;;;;;;;2.67;1.90;;;16.80;39.10;;;;;;5110439;27;20039;-72
2022/04/21 09:33:27;;;;;;;4.32;1.80;;;16.80;38.90;;;;;;5103134;28;20024;-72
2022/04/21 09:35:55;;;;;;;2.90;2.00;;;16.80;38.40;;;;;;5108233;28;20377;-72
2022/04/21 09:38:21;;;;;;;3.50;1.83;;;16.80;38.00;;;;;;5118456;27;20030;-72
2022/04/21 09:40:47;;;;;;;2.97;1.77;;;16.80;38.30;;;;;;5111420;28;20020;-71
2022/04/21 09:43:13;;;;;;;2.72;2.10;;;16.90;38.60;;;;;;5108801;28;20493;-70
2022/04/21 09:48:30;;;;;;;3.35;2.28;;;16.70;37.70;;;;;;5103823;27;20047;-70
2022/04/21 09:51:07;;;;;;;2.53;1.98;;;16.50;38.20;;;;;;5119463;27;20031;-72
2022/04/21 09:53:44;;;;;;;2.15;1.80;;;16.30;37.80;;;;;;5114395;27;20731;-72
2022/04/21 09:56:10;;;;;;;3.85;2.30;;;16.40;38.50;;;;;;5108451;28;20119;-73
2022/04/21 09:58:39;;;;;;;2.60;2.20;;;16.50;39.20;;;;;;5107938;27;20619;-72
2022/04/21 10:01:05;;;;;;;2.60;1.60;;;16.60;39.10;;;;;;5089368;28;20485;-73
2022/04/21 10:03:34;;;;;;;3.08;2.00;;;16.90;38.80;;;;;;5113865;27;20091;-71
2022/04/21 10:06:01;;;;;;;1.70;1.60;;;16.90;38.10;;;;;;5091493;28;20023;-71
2022/04/21 10:08:29;;;;;;;3.03;1.95;;;16.90;37.90;;;;;;5110565;28;20035;-72
2022/04/21 10:10:56;;;;;;;1.98;1.70;;;17.00;37.90;;;;;;5108641;28;20107;-71
2022/04/21 10:13:22;;;;;;;2.33;1.70;;;17.10;38.00;;;;;;5109397;28;20039;-72
2022/04/21 10:15:49;;;;;;;2.25;1.73;;;17.20;38.20;;;;;;5110317;28;20543;-71
2022/04/21 10:18:16;;;;;;;2.70;1.92;;;17.40;37.80;;;;;;5083527;28;20042;-72
2022/04/21 10:20:44;;;;;;;3.10;1.88;;;17.40;37.60;;;;;;5108742;28;20026;-71
2022/04/21 10:23:15;;;;;;;2.65;1.70;;;17.40;37.30;;;;;;5107383;28;20066;-70
2022/04/21 10:25:42;;;;;;;2.88;2.10;;;17.30;36.70;;;;;;5108485;28;20528;-70
2022/04/21 10:28:32;;;;;;;2.92;1.60;;;17.20;36.70;;;;;;5109353;28;20031;-72
2022/04/21 10:30:58;;;;;;;2.55;1.70;;;17.30;37.10;;;;;;5115121;27;20038;-71
2022/04/21 10:33:52;;;;;;;3.28;2.03;;;17.40;37.40;;;;;;5095466;28;20032;-72
2022/04/21 10:36:41;;;;;;;3.92;2.20;;;17.40;37.40;;;;;;5096375;28;20026;-72
2022/04/21 10:39:26;;;;;;;2.60;2.00;;;17.30;37.60;;;;;;5079556;28;20035;-72
2022/04/21 10:42:14;;;;;;;3.53;1.60;;;17.40;37.60;;;;;;5106719;28;20031;-72
2022/04/21 10:44:47;;;;;;;4.93;3.33;;;17.50;36.80;;;;;;5083986;28;20043;-73
2022/04/21 10:47:35;;;;;;;3.90;2.28;;;17.30;36.50;;;;;;5101943;28;20016;-73
2022/04/21 10:50:14;;;;;;;2.30;2.08;;;17.30;37.20;;;;;;5097626;28;20122;-72
2022/04/21 10:57:58;;;;;;;2.40;1.73;;;17.60;36.20;;;;;;5102304;28;20039;-74
2022/04/21 11:00:23;;;;;;;2.08;1.83;;;17.80;36.60;;;;;;5106176;28;20065;-73
2022/04/21 11:02:59;;;;;;;4.82;2.20;;;18.10;36.30;;;;;;5122562;28;20223;-73
2022/04/21 11:05:30;;;;;;;1.80;1.70;;;18.10;35.10;;;;;;5106278;28;20560;-72
2022/04/21 11:07:57;;;;;;;2.30;1.90;;;18.00;35.10;;;;;;5115674;28;20098;-72
2022/04/21 11:10:37;;;;;;;2.85;1.90;;;17.90;35.20;;;;;;5108720;28;20464;-74
2022/04/21 11:13:08;;;;;;;3.35;2.42;;;17.80;35.00;;;;;;5115676;28;20032;-74
2022/04/21 11:15:53;;;;;;;2.15;1.77;;;17.80;35.10;;;;;;5106031;28;20233;-72
2022/04/21 11:18:29;;;;;;;2.70;2.00;;;17.90;35.80;;;;;;5115649;28;20020;-71
2022/04/21 11:21:26;;;;;;;3.47;2.20;;;18.10;35.50;;;;;;5113902;28;20095;-71
2022/04/21 11:23:52;;;;;;;2.10;1.90;;;18.00;34.30;;;;;;5109848;28;20524;-73
2022/04/21 11:26:24;;;;;;;3.30;1.90;;;17.70;34.50;;;;;;5109276;28;20028;-72
2022/04/21 11:28:49;;;;;;;;;;;17.70;35.00;;;;;;5101672;28;20121;-72
2022/04/21 11:31:15;;;;;;;3.10;2.28;;;17.70;35.80;;;;;;5104554;28;19935;-73
2022/04/21 11:33:44;;;;;;;4.95;2.60;;;17.60;36.00;;;;;;5109994;28;20097;-72
2022/04/21 11:36:12;;;;;;;2.92;2.40;;;17.60;36.00;;;;;;5105866;27;20162;-72
2022/04/21 11:38:45;;;;;;;2.70;1.80;;;17.60;35.70;;;;;;5122937;27;20054;-72
2022/04/21 11:41:13;;;;;;;3.20;1.65;;;17.80;35.70;;;;;;5127660;27;20058;-75
2022/04/21 11:43:49;;;;;;;2.33;1.85;;;18.00;35.80;;;;;;5109357;28;20054;-74
2022/04/21 11:46:18;;;;;;;3.40;2.10;;;18.30;35.70;;;;;;5116906;28;20023;-75
2022/04/21 11:48:43;;;;;;;2.40;1.70;;;18.30;35.50;;;;;;5123307;27;20509;-72
2022/04/21 11:51:11;;;;;;;2.58;2.05;;;18.60;35.50;;;;;;5093388;28;20032;-73
2022/04/21 11:53:40;;;;;;;3.70;2.25;;;18.50;35.20;;;;;;5085384;28;20375;-72
2022/04/21 11:56:07;;;;;;;3.22;2.08;;;18.50;35.20;;;;;;5095413;28;20015;-72
2022/04/21 11:58:35;;;;;;;2.60;1.92;;;18.60;35.20;;;;;;5107995;28;20024;-73
2022/04/21 12:06:43;;;;;;;2.65;2.00;;;18.80;35.30;;;;;;5101001;28;20248;-74
2022/04/21 12:09:15;;;;;;;2.80;2.30;;;18.90;35.50;;;;;;5129334;27;20045;-72
2022/04/21 12:11:51;;;;;;;2.67;2.03;;;19.10;34.70;;;;;;5121268;27;20023;-72
2022/04/21 12:14:18;;;;;;;2.72;1.95;;;19.10;34.70;;;;;;5095856;27;20076;-72
2022/04/21 12:16:49;;;;;;;4.72;2.83;;;19.40;34.70;;;;;;5107696;28;20601;-72
2022/04/21 12:19:15;;;;;;;3.72;2.20;;;19.50;33.60;;;;;;5101208;28;20024;-72
2022/04/21 12:21:42;;;;;;;2.28;1.70;;;19.40;34.00;;;;;;5100468;28;20023;-72
2022/04/21 12:24:13;;;;;;;3.45;2.53;;;19.70;34.10;;;;;;5099964;27;20490;-76
2022/04/21 12:26:45;;;;;;;3.30;2.15;;;19.90;33.70;;;;;;5102478;28;20032;-73
2022/04/21 12:29:11;;;;;;;2.03;1.83;;;19.60;34.20;;;;;;5119373;27;20027;-72
2022/04/21 12:31:51;;;;;;;5.82;2.53;;;19.80;34.40;;;;;;5108314;27;20043;-74
2022/04/21 12:34:28;;;;;;;4.00;2.20;;;19.50;34.50;;;;;;5086364;28;20019;-72
2022/04/21 12:36:58;;;;;;;4.40;2.30;;;19.40;34.40;;;;;;5109973;27;20024;-72
2022/04/21 12:39:25;;;;;;;2.97;2.42;;;19.50;34.70;;;;;;5108341;27;20021;-72
2022/04/21 12:41:52;;;;;;;4.35;2.25;;;19.50;34.80;;;;;;5104573;27;20639;-72
2022/04/21 12:44:18;;;;;;;3.20;2.40;;;19.60;35.00;;;;;;5122336;27;20023;-74
2022/04/21 12:47:18;;;;;;;3.90;2.50;;;19.60;35.50;;;;;;5111159;27;20024;-72
2022/04/21 12:49:57;;;;;;;3.47;2.40;;;19.70;35.30;;;;;;5087400;27;20412;-73
2022/04/21 12:52:33;;;;;;;2.80;2.40;;;19.50;35.80;;;;;;5124818;27;20023;-72
2022/04/21 12:55:00;;;;;;;5.85;2.70;;;19.30;36.20;;;;;;5118265;27;20033;-73
2022/04/21 12:57:27;;;;;;;5.55;2.83;;;19.40;36.80;;;;;;5107816;28;20470;-74
2022/04/21 12:59:53;;;;;;;3.60;2.72;;;19.40;36.70;;;;;;5120630;27;20452;-72
2022/04/21 13:02:18;;;;;;;3.75;2.40;;;19.40;36.50;;;;;;5111799;27;20019;-72
2022/04/21 13:04:45;;;;;;;4.22;2.60;;;19.60;36.40;;;;;;5109176;27;20107;-73
2022/04/21 13:07:11;;;;;;;3.50;2.55;;;19.80;36.30;;;;;;5107708;27;20036;-72
2022/04/21 13:09:36;;;;;;;5.00;2.97;;;19.90;35.90;;;;;;5111435;28;20038;-71
2022/04/21 13:12:02;;;;;;;3.10;2.47;;;19.80;35.90;;;;;;5100742;28;20040;-72
2022/04/21 13:14:28;;;;;;;3.55;2.47;;;19.90;36.20;;;;;;5111624;27;20020;-72
2022/04/21 13:16:54;;;;;;;3.08;2.28;;;19.70;36.30;;;;;;5113671;27;20428;-72
2022/04/21 13:19:19;;;;;;;3.58;2.00;;;19.60;36.30;;;;;;5113420;27;20035;-70
2022/04/21 13:21:55;;;;;;;2.63;2.03;;;19.70;36.50;;;;;;5112416;27;20286;-73
2022/04/21 13:24:25;;;;;;;4.35;2.80;;;20.00;36.20;;;;;;5107179;28;20110;-74
2022/04/21 13:26:55;;;;;;;5.78;2.47;;;20.00;35.70;;;;;;5112794;27;20016;-72
2022/04/21 13:29:20;;;;;;;2.88;1.77;;;19.90;35.80;;;;;;5107756;28;20039;-72
2022/04/21 13:34:31;;;;;;;4.68;2.10;;;20.20;35.80;;;;;;5109638;27;20122;-71
2022/04/21 13:36:57;;;;;;;1.98;1.60;;;20.20;35.40;;;;;;5112090;27;20087;-71
2022/04/21 13:39:22;;;;;;;3.70;2.50;;;20.30;35.60;;;;;;5126012;27;20020;-73
2022/04/21 13:41:48;;;;;;;3.65;2.42;;;20.10;35.00;;;;;;5104815;28;20032;-71
2022/04/21 13:44:14;;;;;;;5.78;2.30;;;19.80;35.70;;;;;;5116887;27;20078;-74
2022/04/21 13:46:40;;;;;;;4.13;1.90;;;19.60;36.20;;;;;;5115472;27;20060;-73
2022/04/21 13:49:07;;;;;;;3.42;1.70;;;19.70;36.60;;;;;;5107369;28;20047;-72